Time;durP1;ratioP1;P1;durP2;ratioP2;P2;SDS_P1;SDS_P2;PMS_P1;PMS_P2;Temp;Humidity;BMP_temperature;BMP_pressure;BME280_temperature;BME280_humidity;BME280_pressure;Samples;Min_cycle;Max_cycle;Signal;HPM_P1;HPM_P2
2022/04/06 00:01:03;;;;;;;18.40;3.08;;;;;;;9.13;100.00;100211.66;5111757;28;20039;-30
2022/04/06 00:03:31;;;;;;;13.23;2.60;;;;;;;9.13;100.00;100210.81;5111079;28;20103;-30
2022/04/06 00:05:59;;;;;;;10.57;2.28;;;;;;;9.15;100.00;100209.38;5111894;28;20047;-30
2022/04/06 00:08:27;;;;;;;11.65;2.25;;;;;;;9.16;100.00;100201.88;5113032;28;20070;-30
2022/04/06 00:10:56;;;;;;;13.40;2.20;;;;;;;9.15;100.00;100203.00;5113373;28;20381;-26
2022/04/06 00:13:24;;;;;;;15.27;2.65;;;;;;;9.14;100.00;100204.97;5109887;28;20442;-33
2022/04/06 00:15:54;;;;;;;12.30;2.85;;;;;;;9.13;100.00;100185.78;5112545;28;20105;-28
2022/04/06 00:18:22;;;;;;;14.68;2.80;;;;;;;9.13;100.00;100194.94;5112225;28;20412;-31
2022/04/06 00:20:50;;;;;;;15.10;2.60;;;;;;;9.12;100.00;100186.91;5113438;28;20238;-28
2022/04/06 00:23:18;;;;;;;14.30;2.67;;;;;;;9.09;100.00;100195.84;5112617;28;20105;-25
2022/04/06 00:25:45;;;;;;;11.95;2.72;;;;;;;9.11;100.00;100201.94;5113394;27;20497;-27
2022/04/06 00:28:14;;;;;;;13.32;2.58;;;;;;;9.11;100.00;100188.88;5113163;28;20074;-33
2022/04/06 00:30:42;;;;;;;13.93;2.90;;;;;;;9.08;100.00;100192.25;5112254;28;20054;-26
2022/04/06 00:33:10;;;;;;;15.25;2.90;;;;;;;9.07;100.00;100190.59;5113249;28;20048;-32
2022/04/06 00:35:38;;;;;;;13.63;2.42;;;;;;;9.07;100.00;100185.03;5113119;27;20056;-25
2022/04/06 00:38:07;;;;;;;12.23;2.28;;;;;;;9.08;100.00;100180.28;5112390;28;20047;-30
2022/04/06 00:40:36;;;;;;;11.23;2.30;;;;;;;9.09;100.00;100187.50;5112799;28;20492;-28
2022/04/06 00:43:07;;;;;;;14.63;2.08;;;;;;;9.07;100.00;100190.59;5112836;28;20108;-27
2022/04/06 00:45:38;;;;;;;12.73;2.35;;;;;;;9.06;100.00;100177.81;5112397;28;20090;-28
2022/04/06 00:48:07;;;;;;;11.73;2.10;;;;;;;9.07;100.00;100167.50;5113219;28;20048;-29
2022/04/06 00:50:36;;;;;;;12.02;1.88;;;;;;;9.04;100.00;100180.06;5112397;28;20261;-31
2022/04/06 00:53:04;;;;;;;14.82;2.42;;;;;;;9.06;100.00;100186.16;5112758;28;20071;-26
2022/04/06 00:55:34;;;;;;;8.15;1.80;;;;;;;9.07;100.00;100170.28;5112693;27;20806;-29
2022/04/06 00:58:03;;;;;;;17.38;2.40;;;;;;;9.07;100.00;100171.13;5112090;28;20486;-28
2022/04/06 01:00:31;;;;;;;13.00;1.90;;;;;;;9.08;100.00;100169.16;5112632;28;20039;-27
2022/04/06 01:03:00;;;;;;;15.32;2.33;;;;;;;9.09;100.00;100160.50;5112651;28;20058;-24
2022/04/06 01:05:28;;;;;;;16.08;2.20;;;;;;;9.08;100.00;100164.41;5111830;28;20130;-26
2022/04/06 01:07:59;;;;;;;11.55;2.05;;;;;;;9.07;100.00;100161.94;5112292;28;20069;-29
2022/04/06 01:10:27;;;;;;;13.63;2.83;;;;;;;9.05;100.00;100158.63;5111700;28;20051;-26
2022/04/06 01:12:56;;;;;;;12.70;2.40;;;;;;;9.04;100.00;100163.38;5111410;28;20047;-28
2022/04/06 01:15:24;;;;;;;15.27;2.67;;;;;;;9.03;100.00;100160.91;5092631;28;20063;-31
2022/04/06 01:17:52;;;;;;;17.77;3.00;;;;;;;9.01;100.00;100161.19;5110568;28;20154;-30
2022/04/06 01:20:21;;;;;;;13.38;2.25;;;;;;;9.02;100.00;100162.03;5111360;28;20473;-34
2022/04/06 01:22:50;;;;;;;12.63;2.00;;;;;;;8.99;100.00;100157.94;5112062;28;20134;-30
2022/04/06 01:25:18;;;;;;;13.73;2.15;;;;;;;8.94;100.00;100156.06;5112047;28;20059;-30
2022/04/06 01:27:46;;;;;;;18.40;2.70;;;;;;;8.94;100.00;100152.44;5111418;28;20043;-32
2022/04/06 01:30:14;;;;;;;13.75;2.90;;;;;;;8.96;100.00;100152.97;5112023;28;20492;-31
2022/04/06 01:32:41;;;;;;;16.77;3.22;;;;;;;8.92;100.00;100151.91;5110856;28;20054;-33
2022/04/06 01:35:09;;;;;;;15.98;2.80;;;;;;;8.93;100.00;100143.28;5111093;28;20115;-27
2022/04/06 01:37:37;;;;;;;17.85;3.20;;;;;;;8.89;100.00;100146.97;5112084;28;20047;-30
2022/04/06 01:40:07;;;;;;;13.45;3.00;;;;;;;8.90;100.00;100137.50;5111034;28;20051;-27
2022/04/06 01:42:35;;;;;;;21.95;3.75;;;;;;;8.89;100.00;100135.84;5111827;28;20054;-30
2022/04/06 01:45:06;;;;;;;15.02;2.70;;;;;;;8.89;100.00;100133.06;5110482;28;20400;-30
2022/04/06 01:47:34;;;;;;;19.65;3.25;;;;;;;8.88;100.00;100143.34;5110703;28;20051;-26
2022/04/06 01:52:47;;;;;;;16.75;3.13;;;;;;;8.88;100.00;100126.66;5111658;28;20040;-27
2022/04/06 01:55:16;;;;;;;14.18;3.28;;;;;;;8.88;100.00;100128.63;5110933;28;20050;-29
2022/04/06 01:57:45;;;;;;;15.65;3.40;;;;;;;8.88;100.00;100114.72;5111545;28;20397;-25
2022/04/06 02:00:15;;;;;;;19.67;4.45;;;;;;;8.89;100.00;100127.47;5111186;28;20035;-31
2022/04/06 02:02:46;;;;;;;18.65;4.10;;;;;;;8.89;100.00;100113.56;5110944;28;20044;-29
2022/04/06 02:05:14;;;;;;;22.50;4.80;;;;;;;8.89;100.00;100117.19;5111617;28;20117;-30
2022/04/06 02:07:43;;;;;;;20.25;4.72;;;;;;;8.90;100.00;100112.44;5111403;28;20044;-31
2022/04/06 02:10:11;;;;;;;16.02;4.40;;;;;;;8.91;100.00;100109.34;5110554;28;20437;-28
2022/04/06 02:12:41;;;;;;;21.73;4.35;;;;;;;8.88;100.00;100095.22;5111150;28;20055;-25
2022/04/06 02:15:11;;;;;;;20.52;4.40;;;;;;;8.90;100.00;100096.56;5110325;28;20043;-27
2022/04/06 02:17:42;;;;;;;23.77;4.75;;;;;;;8.90;100.00;100095.75;5111380;28;20052;-33
2022/04/06 02:20:10;;;;;;;15.05;3.95;;;;;;;8.90;100.00;100092.97;5110614;28;20048;-31
2022/04/06 02:22:40;;;;;;;21.55;4.28;;;;;;;8.88;100.00;100093.28;5106782;28;20036;-26
2022/04/06 02:25:10;;;;;;;20.50;3.88;;;;;;;8.90;100.00;100087.41;5110934;28;20047;-29
2022/04/06 02:27:48;;;;;;;20.08;3.90;;;;;;;8.89;100.00;100091.31;5111204;28;20464;-28
2022/04/06 02:30:17;;;;;;;26.60;4.18;;;;;;;8.88;100.00;100078.53;5110586;28;20043;-25
2022/04/06 02:32:44;;;;;;;18.02;3.80;;;;;;;8.89;100.00;100092.16;5111082;28;20139;-31
2022/04/06 02:35:13;;;;;;;20.25;4.22;;;;;;;8.90;100.00;100079.88;5111387;28;20082;-29
2022/04/06 02:37:43;;;;;;;18.70;4.00;;;;;;;8.88;100.00;100075.75;5109873;27;20077;-29
2022/04/06 02:40:13;;;;;;;19.55;3.78;;;;;;;8.87;100.00;100079.66;5111010;28;20051;-30
2022/04/06 02:42:42;;;;;;;18.40;3.47;;;;;;;8.85;100.00;100081.94;5111005;28;20048;-29
2022/04/06 02:45:11;;;;;;;15.65;3.28;;;;;;;8.88;100.00;100081.31;5102824;28;20515;-29
2022/04/06 02:47:45;;;;;;;18.95;3.33;;;;;;;8.85;100.00;100068.84;5110860;28;20468;-33
2022/04/06 02:50:13;;;;;;;19.52;3.78;;;;;;;8.84;100.00;100071.94;5110244;28;20035;-29
2022/04/06 02:52:41;;;;;;;24.38;3.70;;;;;;;8.83;100.00;100073.88;5110981;28;20399;-26
2022/04/06 02:55:12;;;;;;;19.08;4.00;;;;;;;8.83;100.00;100062.75;5110778;28;20436;-32
2022/04/06 02:57:41;;;;;;;20.98;3.90;;;;;;;8.81;100.00;100066.97;5109936;28;20049;-26
2022/04/06 03:00:12;;;;;;;19.50;3.72;;;;;;;8.81;100.00;100064.19;5110597;28;20035;-30
2022/04/06 03:02:39;;;;;;;17.77;3.33;;;;;;;8.81;100.00;100069.75;5110562;28;20056;-30
2022/04/06 03:05:08;;;;;;;22.58;4.15;;;;;;;8.80;100.00;100065.31;5110024;28;20043;-27
2022/04/06 03:07:36;;;;;;;18.60;3.60;;;;;;;8.78;100.00;100062.06;5110648;28;20055;-29
2022/04/06 03:10:04;;;;;;;17.58;3.40;;;;;;;8.76;100.00;100070.69;5110680;28;20044;-31
2022/04/06 03:12:32;;;;;;;13.70;3.47;;;;;;;8.72;100.00;100058.53;5109675;28;20054;-29
2022/04/06 03:15:00;;;;;;;23.23;3.90;;;;;;;8.70;100.00;100063.56;5110537;28;20060;-25
2022/04/06 03:17:29;;;;;;;24.13;3.55;;;;;;;8.63;100.00;100036.16;5110375;28;20231;-29
2022/04/06 03:19:56;;;;;;;23.42;4.20;;;;;;;8.62;100.00;100037.28;5109799;28;20044;-28
2022/04/06 03:22:24;;;;;;;18.40;3.45;;;;;;;8.61;100.00;100051.50;5110418;28;20039;-28
2022/04/06 03:24:57;;;;;;;23.92;3.85;;;;;;;8.60;100.00;100047.88;5109157;28;20070;-26
2022/04/06 03:27:25;;;;;;;24.70;4.13;;;;;;;8.54;100.00;100032.44;5109377;28;20492;-26
2022/04/06 03:29:53;;;;;;;16.48;3.78;;;;;;;8.55;100.00;100039.66;5110443;28;20412;-25
2022/04/06 03:32:20;;;;;;;17.00;3.92;;;;;;;8.54;100.00;100032.44;5110227;28;20055;-26
2022/04/06 03:34:49;;;;;;;30.40;4.72;;;;;;;8.51;100.00;100029.44;5114396;28;20050;-34
2022/04/06 03:37:17;;;;;;;19.60;3.75;;;;;;;8.51;100.00;100032.22;5114120;28;20420;-28
2022/04/06 03:39:45;;;;;;;24.23;4.00;;;;;;;8.50;100.00;100020.28;5111981;28;20070;-25
2022/04/06 03:42:12;;;;;;;21.73;4.13;;;;;;;8.49;100.00;100023.38;5112126;28;20044;-29
2022/04/06 03:44:40;;;;;;;20.42;3.80;;;;;;;8.48;100.00;100025.31;5113644;28;20405;-31
2022/04/06 03:47:08;;;;;;;23.27;4.05;;;;;;;8.49;100.00;100028.91;5112852;28;20055;-25
2022/04/06 03:49:36;;;;;;;18.05;3.58;;;;;;;8.45;100.00;100023.16;5113745;28;20163;-26
2022/04/06 03:52:07;;;;;;;22.23;3.60;;;;;;;8.45;100.00;100016.75;5113675;28;20054;-30
2022/04/06 03:54:34;;;;;;;18.65;3.53;;;;;;;8.45;100.00;100017.59;5113087;28;20068;-26
2022/04/06 03:57:02;;;;;;;24.63;4.47;;;;;;;8.42;100.00;100017.38;5113925;28;20096;-30
2022/04/06 03:59:30;;;;;;;18.25;3.55;;;;;;;8.44;100.00;100004.00;5113964;28;20050;-29
2022/04/06 04:01:58;;;;;;;26.35;4.50;;;;;;;8.42;100.00;100006.25;5112973;28;20094;-31
2022/04/06 04:04:28;;;;;;;25.48;4.40;;;;;;;8.40;100.00;100011.28;5113670;28;20051;-26
2022/04/06 04:06:55;;;;;;;26.55;3.50;;;;;;;8.38;100.00;100006.06;5113755;28;20051;-27
2022/04/06 04:09:28;;;;;;;14.17;2.90;;;;;;;8.38;100.00;99994.94;5112639;28;20048;-28
2022/04/06 04:11:57;;;;;;;19.45;3.58;;;;;;;8.32;100.00;100007.28;5113613;28;20297;-28
2022/04/06 04:14:25;;;;;;;22.35;3.85;;;;;;;8.35;100.00;100006.66;5113603;27;20142;-32
2022/04/06 04:16:53;;;;;;;22.98;3.78;;;;;;;8.34;100.00;100001.41;5112740;28;20122;-30
2022/04/06 04:19:21;;;;;;;23.08;3.75;;;;;;;8.34;100.00;100001.41;5109731;28;20054;-27
2022/04/06 04:21:49;;;;;;;19.20;3.63;;;;;;;8.35;100.00;100001.09;5112525;28;20043;-26
2022/04/06 04:24:18;;;;;;;26.40;3.78;;;;;;;8.34;100.00;99993.06;5113160;28;20043;-27
2022/04/06 04:26:47;;;;;;;19.73;4.07;;;;;;;8.32;100.00;99998.94;5113549;28;20143;-25
2022/04/06 04:29:16;;;;;;;20.48;3.58;;;;;;;8.32;100.00;99989.72;5112565;27;20089;-28
2022/04/06 04:31:44;;;;;;;22.63;3.28;;;;;;;8.28;100.00;99983.94;5113536;28;20272;-26
2022/04/06 04:34:12;;;;;;;20.00;4.18;;;;;;;8.26;100.00;99981.47;5113089;28;20044;-32
2022/04/06 04:36:40;;;;;;;33.42;4.68;;;;;;;8.28;100.00;99983.94;5109057;28;20338;-24
2022/04/06 04:39:07;;;;;;;22.85;3.33;;;;;;;8.24;100.00;99969.00;5113114;28;20073;-27
2022/04/06 04:41:35;;;;;;;26.05;3.75;;;;;;;8.21;100.00;99980.75;5113164;28;20066;-27
2022/04/06 04:44:05;;;;;;;24.48;3.67;;;;;;;8.17;100.00;99990.84;5112176;27;20073;-29
2022/04/06 04:46:32;;;;;;;19.77;3.22;;;;;;;8.20;100.00;99976.31;5110154;28;20050;-25
2022/04/06 04:49:00;;;;;;;22.20;4.05;;;;;;;8.20;100.00;99979.09;5111805;28;20443;-28
2022/04/06 04:51:29;;;;;;;26.45;3.75;;;;;;;8.21;100.00;99978.78;5111341;28;20039;-29
2022/04/06 04:53:57;;;;;;;24.38;3.60;;;;;;;8.21;100.00;99991.84;5111823;28;20047;-24
2022/04/06 04:56:28;;;;;;;20.13;3.83;;;;;;;8.17;100.00;99979.72;5110477;28;20409;-33
2022/04/06 04:58:58;;;;;;;18.42;3.20;;;;;;;8.16;100.00;99980.84;5110861;28;20051;-26
2022/04/06 05:01:28;;;;;;;18.70;3.30;;;;;;;8.17;100.00;99966.66;5111278;28;20114;-28
2022/04/06 05:03:56;;;;;;;18.92;2.88;;;;;;;8.21;100.00;99962.09;5110538;28;20489;-30
2022/04/06 05:06:24;;;;;;;21.45;3.28;;;;;;;8.23;100.00;99959.03;5109419;28;20036;-29
2022/04/06 05:08:52;;;;;;;25.02;3.88;;;;;;;8.23;100.00;99968.19;5111243;28;20138;-27
2022/04/06 05:11:20;;;;;;;20.60;2.78;;;;;;;8.23;100.00;99959.84;5110454;28;20409;-31
2022/04/06 05:13:47;;;;;;;19.85;3.55;;;;;;;8.25;100.00;99956.78;5099568;28;20051;-30
2022/04/06 05:16:15;;;;;;;16.30;2.83;;;;;;;8.27;100.00;99948.94;5090745;28;20047;-25
2022/04/06 05:18:44;;;;;;;21.13;3.42;;;;;;;8.28;100.00;99950.59;5090223;28;20052;-26
2022/04/06 05:21:12;;;;;;;19.85;3.13;;;;;;;8.26;100.00;99955.63;5090492;28;20048;-34
2022/04/06 05:23:40;;;;;;;16.42;3.30;;;;;;;8.33;100.00;99958.88;5090550;28;20056;-26
2022/04/06 05:26:08;;;;;;;23.02;3.45;;;;;;;8.33;100.00;99952.50;5090010;28;20059;-36
2022/04/06 05:28:35;;;;;;;24.67;3.65;;;;;;;8.32;100.00;99950.81;5090655;28;20165;-27
2022/04/06 05:31:03;;;;;;;20.42;2.95;;;;;;;8.33;100.00;99953.31;5090870;28;20055;-29
2022/04/06 05:33:31;;;;;;;18.27;3.42;;;;;;;8.33;100.00;99942.22;5088190;28;20456;-26
2022/04/06 05:36:00;;;;;;;23.60;3.20;;;;;;;8.34;100.00;99956.94;5091349;28;20052;-26
2022/04/06 05:38:28;;;;;;;26.52;3.88;;;;;;;8.34;100.00;99946.63;5090134;28;20044;-30
2022/04/06 05:40:55;;;;;;;22.13;3.50;;;;;;;8.32;100.00;99951.69;5089606;28;20078;-26
2022/04/06 05:43:23;;;;;;;23.90;3.55;;;;;;;8.30;100.00;99942.78;5089793;28;20048;-30
2022/04/06 05:45:51;;;;;;;22.05;3.25;;;;;;;8.32;100.00;99948.03;5089584;28;20456;-30
2022/04/06 05:48:19;;;;;;;24.48;3.53;;;;;;;8.28;100.00;99937.53;5100783;28;20048;-24
2022/04/06 05:50:47;;;;;;;23.40;3.58;;;;;;;8.28;100.00;99940.31;5111592;28;20055;-27
2022/04/06 05:53:16;;;;;;;23.45;3.50;;;;;;;8.26;100.00;99937.00;5110681;28;20039;-26
2022/04/06 05:55:47;;;;;;;20.23;3.45;;;;;;;8.25;100.00;99943.69;5111048;28;20476;-25
2022/04/06 05:58:15;;;;;;;18.55;2.97;;;;;;;8.22;100.00;99935.16;5111996;28;20134;-30
2022/04/06 06:00:44;;;;;;;21.17;3.88;;;;;;;8.27;100.00;99940.63;5110698;28;20042;-28
2022/04/06 06:03:11;;;;;;;27.00;3.45;;;;;;;8.25;100.00;99934.53;5111275;28;20044;-30
2022/04/06 06:05:39;;;;;;;15.27;3.08;;;;;;;8.27;100.00;99937.84;5111368;28;20074;-30
2022/04/06 06:08:18;;;;;;;22.13;3.30;;;;;;;8.24;100.00;99930.09;5110708;28;20230;-26
2022/04/06 06:10:45;;;;;;;21.63;3.33;;;;;;;8.25;100.00;99934.53;5111514;28;20118;-26
2022/04/06 06:13:13;;;;;;;20.95;3.35;;;;;;;8.22;100.00;99940.69;5111359;28;20039;-28
2022/04/06 06:15:41;;;;;;;23.90;3.25;;;;;;;8.19;100.00;99928.25;5110660;28;20462;-33
2022/04/06 06:18:09;;;;;;;21.45;3.13;;;;;;;8.21;100.00;99925.97;5111012;28;20048;-28
2022/04/06 06:20:37;;;;;;;24.17;3.72;;;;;;;8.21;100.00;99925.16;5111239;28;20059;-25
2022/04/06 06:23:04;;;;;;;22.63;3.40;;;;;;;8.21;100.00;99916.81;5110192;28;20062;-26
2022/04/06 06:25:34;;;;;;;24.70;3.35;;;;;;;8.23;100.00;99914.56;5111106;28;20046;-26
2022/04/06 06:28:01;;;;;;;21.63;3.33;;;;;;;8.21;100.00;99916.81;5111246;28;20163;-28
2022/04/06 06:30:29;;;;;;;22.58;3.38;;;;;;;8.22;100.00;99899.00;5108401;28;20408;-30
2022/04/06 06:32:57;;;;;;;20.65;3.42;;;;;;;8.21;100.00;99911.25;5110781;28;20051;-26
2022/04/06 06:35:25;;;;;;;32.17;4.07;;;;;;;8.23;100.00;99914.56;5109058;28;20393;-28
2022/04/06 06:37:55;;;;;;;23.27;3.13;;;;;;;8.21;100.00;99914.03;5110975;28;20047;-26
2022/04/06 06:40:24;;;;;;;25.00;3.35;;;;;;;8.24;100.00;99917.03;5110675;28;20408;-28
2022/04/06 06:42:53;;;;;;;22.67;3.42;;;;;;;8.23;100.00;99909.00;5110480;28;20044;-33
2022/04/06 06:45:21;;;;;;;21.45;3.20;;;;;;;8.25;100.00;99913.13;5110799;28;20036;-25
2022/04/06 06:47:49;;;;;;;25.38;3.20;;;;;;;8.28;100.00;99906.13;5110747;28;20390;-26
2022/04/06 06:50:18;;;;;;;21.80;2.95;;;;;;;8.32;100.00;99890.53;5109860;28;20428;-27
2022/04/06 06:52:46;;;;;;;18.90;2.97;;;;;;;8.37;100.00;99907.13;5110986;28;20047;-29
2022/04/06 06:55:18;;;;;;;19.00;3.35;;;;;;;8.35;100.00;99894.66;5110726;28;20420;-32
2022/04/06 06:57:46;;;;;;;19.55;3.30;;;;;;;8.40;100.00;99898.13;5110095;28;20058;-25
2022/04/06 07:00:19;;;;;;;22.40;3.92;;;;;;;8.41;100.00;99901.72;5110323;28;20051;-28
2022/04/06 07:02:46;;;;;;;17.48;2.80;;;;;;;8.47;100.00;99881.88;5110971;28;20078;-27
2022/04/06 07:05:14;;;;;;;18.98;2.95;;;;;;;8.51;100.00;99885.69;5109942;28;20040;-34
2022/04/06 07:07:53;;;;;;;23.83;3.17;;;;;;;8.56;100.00;99882.81;5113390;28;20472;-30
2022/04/06 07:10:21;;;;;;;20.05;2.90;;;;;;;8.53;100.00;99883.44;5114835;28;20130;-30
2022/04/06 07:12:49;;;;;;;19.55;2.85;;;;;;;8.55;100.00;99872.81;5114338;28;20058;-28
2022/04/06 07:15:18;;;;;;;19.65;3.15;;;;;;;8.57;100.00;99886.41;5114836;28;20047;-29
2022/04/06 07:17:50;;;;;;;20.25;2.78;;;;;;;8.59;100.00;99857.13;5114037;28;20133;-27
2022/04/06 07:20:18;;;;;;;24.88;3.00;;;;;;;8.61;100.00;99856.84;5114186;28;20180;-29
2022/04/06 07:22:46;;;;;;;18.45;2.90;;;;;;;8.62;100.00;99864.88;5114464;28;20066;-28
2022/04/06 07:25:14;;;;;;;21.65;3.00;;;;;;;8.69;100.00;99858.88;5113273;28;20047;-31
2022/04/06 07:27:42;;;;;;;20.08;3.42;;;;;;;8.72;100.00;99849.94;5113533;28;20500;-29
2022/04/06 07:30:11;;;;;;;23.75;3.55;;;;;;;8.75;100.00;99854.06;5114503;27;20043;-25
2022/04/06 07:32:40;;;;;;;18.38;2.90;;;;;;;8.83;100.00;99858.84;5113562;28;20415;-31
2022/04/06 07:35:09;;;;;;;17.80;2.70;;;;;;;8.92;100.00;99859.78;5114203;28;20052;-25
2022/04/06 07:37:37;;;;;;;14.98;3.08;;;;;;;8.96;100.00;99849.69;5114357;28;20058;-30
2022/04/06 07:40:07;;;;;;;18.83;2.85;;;;;;;8.96;100.00;99852.47;5113508;28;20060;-28
2022/04/06 07:42:35;;;;;;;25.30;3.30;;;;;;;8.97;100.00;99852.16;5114251;27;20051;-31
2022/04/06 07:45:03;;;;;;;21.52;3.10;;;;;;;9.01;100.00;99848.72;5114224;28;20126;-30
2022/04/06 07:47:33;;;;;;;24.35;3.70;;;;;;;8.99;100.00;99844.28;5113080;28;20420;-25
2022/04/06 07:50:03;;;;;;;20.20;3.38;;;;;;;9.00;100.00;99839.53;5113966;28;20050;-34
2022/04/06 07:52:32;;;;;;;21.17;3.45;;;;;;;8.99;100.00;99835.16;5114167;28;20050;-27
2022/04/06 07:55:00;;;;;;;27.10;3.97;;;;;;;8.95;100.00;99826.59;5113832;28;20126;-30
2022/04/06 07:57:28;;;;;;;19.50;3.45;;;;;;;8.99;100.00;99843.50;5113839;28;20035;-26
2022/04/06 07:59:57;;;;;;;20.77;3.55;;;;;;;9.07;100.00;99833.56;5112912;28;20035;-27
2022/04/06 08:02:25;;;;;;;22.38;3.92;;;;;;;9.19;100.00;99837.41;5113683;28;20066;-28
2022/04/06 08:04:53;;;;;;;20.85;2.83;;;;;;;9.39;100.00;99826.94;5113524;28;20126;-28
2022/04/06 08:07:22;;;;;;;20.35;3.42;;;;;;;9.56;100.00;99838.19;5113202;28;20130;-33
2022/04/06 08:09:50;;;;;;;20.13;3.38;;;;;;;9.48;100.00;99842.56;5113646;28;20105;-30
2022/04/06 08:12:18;;;;;;;22.75;3.17;;;;;;;9.51;100.00;99832.75;5113544;28;20093;-27
2022/04/06 08:14:48;;;;;;;22.23;3.63;;;;;;;9.70;100.00;99833.38;5112794;28;20404;-31
2022/04/06 08:17:16;;;;;;;18.75;4.22;;;;;;;9.97;100.00;99827.63;5109617;28;20036;-32
2022/04/06 08:19:44;;;;;;;21.02;3.42;;;;;;;10.27;100.00;99839.09;5113163;28;20047;-30
2022/04/06 08:22:12;;;;;;;19.67;3.55;;;;;;;10.63;100.00;99834.09;5112656;28;20048;-30
2022/04/06 08:24:41;;;;;;;22.27;4.65;;;;;;;10.85;100.00;99824.78;5113360;27;20480;-30
2022/04/06 08:27:09;;;;;;;22.05;3.65;;;;;;;10.81;100.00;99832.19;5113206;28;20138;-27
2022/04/06 08:29:36;;;;;;;25.52;3.90;;;;;;;10.53;100.00;99820.47;5112917;28;20138;-29
2022/04/06 08:32:05;;;;;;;22.25;3.25;;;;;;;10.45;100.00;99814.88;5113080;28;20424;-24
2022/04/06 08:34:33;;;;;;;21.85;3.50;;;;;;;10.15;100.00;99814.59;5113111;28;20048;-24
2022/04/06 08:37:02;;;;;;;22.88;3.97;;;;;;;10.12;100.00;99794.91;5112179;28;20496;-31
2022/04/06 08:39:29;;;;;;;20.33;3.53;;;;;;;10.01;100.00;99797.13;5113010;28;20477;-27
2022/04/06 08:41:59;;;;;;;23.35;3.85;;;;;;;10.15;100.00;99785.88;5112267;28;20039;-29
2022/04/06 08:44:39;;;;;;;24.75;3.97;;;;;;;10.43;100.00;99781.72;5111736;28;20047;-28
2022/04/06 08:47:08;;;;;;;24.10;3.63;;;;;;;10.74;100.00;99787.22;5111862;28;20052;-29
2022/04/06 08:49:36;;;;;;;20.88;3.40;;;;;;;10.83;100.00;99779.66;5111961;27;20162;-28
2022/04/06 08:52:05;;;;;;;19.38;3.80;;;;;;;10.96;100.00;99783.44;5112807;28;20052;-30
2022/04/06 08:54:33;;;;;;;23.50;3.83;;;;;;;11.11;100.00;99787.72;5112598;28;20046;-30
2022/04/06 08:57:03;;;;;;;20.55;3.80;;;;;;;11.21;100.00;99774.22;5111815;28;20475;-32
2022/04/06 08:59:31;;;;;;;25.23;4.25;;;;;;;11.38;100.00;99782.59;5112561;28;20046;-27
2022/04/06 09:01:59;;;;;;;20.73;3.75;;;;;;;11.58;100.00;99783.06;5112617;28;20042;-25
2022/04/06 09:04:29;;;;;;;20.67;3.47;;;;;;;11.69;100.00;99798.31;5111574;28;20048;-31
2022/04/06 09:07:08;;;;;;;29.27;4.03;;;;;;;11.59;100.00;99781.91;5112512;28;20389;-33
2022/04/06 09:09:37;;;;;;;28.55;4.63;;;;;;;11.32;100.00;99788.69;5112689;27;20054;-33
2022/04/06 09:12:10;;;;;;;22.48;3.40;;;;;;;11.12;100.00;99798.56;5111557;28;20059;-33
2022/04/06 09:14:38;;;;;;;23.50;4.05;;;;;;;10.82;100.00;99774.38;5112423;28;20067;-32
2022/04/06 09:17:07;;;;;;;20.75;3.88;;;;;;;10.64;100.00;99781.94;5111478;28;20500;-29
2022/04/06 09:19:37;;;;;;;29.73;4.18;;;;;;;10.55;100.00;99787.50;5112187;28;20455;-32
2022/04/06 09:22:07;;;;;;;25.13;3.85;;;;;;;10.49;100.00;99788.78;5101082;28;20142;-32
2022/04/06 09:24:34;;;;;;;23.67;4.47;;;;;;;10.45;100.00;99789.75;5108094;28;20040;-29
2022/04/06 09:27:04;;;;;;;26.17;4.30;;;;;;;10.40;100.00;99804.69;5110849;28;20480;-25
2022/04/06 09:29:35;;;;;;;21.40;3.70;;;;;;;10.38;100.00;99807.00;5111799;28;20043;-29
2022/04/06 09:32:08;;;;;;;20.13;3.58;;;;;;;10.23;100.00;99797.09;5107822;28;20416;-25
2022/04/06 09:34:56;;;;;;;21.60;3.58;;;;;;;10.12;100.00;99795.72;5111935;28;20477;-29
2022/04/06 09:37:25;;;;;;;27.15;4.00;;;;;;;10.02;100.00;99796.81;5112335;28;20469;-25
2022/04/06 09:39:56;;;;;;;26.40;4.15;;;;;;;9.96;100.00;99792.53;5110909;28;20135;-32
2022/04/06 09:42:26;;;;;;;30.45;4.72;;;;;;;9.89;100.00;99800.53;5111945;28;20067;-29
2022/04/06 09:47:51;;;;;;;27.45;4.00;;;;;;;9.96;100.00;99800.09;5111876;28;20507;-33
2022/04/06 09:50:22;;;;;;;29.60;3.90;;;;;;;10.10;100.00;99794.38;5111241;28;20447;-31
2022/04/06 09:52:51;;;;;;;23.45;4.07;;;;;;;10.30;100.00;99777.09;5110976;28;20411;-27
2022/04/06 09:55:20;;;;;;;23.13;3.95;;;;;;;10.48;100.00;99784.38;5111266;28;20515;-28
2022/04/06 09:57:51;;;;;;;23.33;4.18;;;;;;;10.73;100.00;99785.56;5111759;28;20066;-28
2022/04/06 10:00:22;;;;;;;26.23;4.00;;;;;;;10.93;100.00;99776.56;5111024;28;20087;-27
2022/04/06 10:02:58;;;;;;;25.52;4.30;;;;;;;11.12;100.00;99792.16;5111408;28;20420;-26
2022/04/06 10:05:29;;;;;;;24.58;4.57;;;;;;;11.12;100.00;99756.66;5111158;28;20039;-28
2022/04/06 10:08:00;;;;;;;34.40;5.57;;;;;;;11.27;100.00;99758.13;5109982;28;20039;-27
2022/04/06 10:10:28;;;;;;;25.60;4.55;;;;;;;11.36;100.00;99756.97;5111378;28;20083;-31
2022/04/06 10:12:57;;;;;;;28.15;4.47;;;;;;;11.34;100.00;99755.66;5111110;28;20055;-32
2022/04/06 10:15:46;;;;;;;31.10;4.47;;;;;;;11.48;100.00;99775.00;5110951;28;20071;-26
2022/04/06 10:18:14;;;;;;;31.95;5.18;;;;;;;11.51;100.00;99765.97;5110937;28;20035;-28
2022/04/06 10:20:51;;;;;;;23.40;4.10;;;;;;;11.52;100.00;99801.13;5110546;28;20048;-30
2022/04/06 10:23:27;;;;;;;25.60;5.32;;;;;;;11.58;100.00;99771.88;5110034;28;20051;-32
2022/04/06 10:26:27;;;;;;;26.77;4.72;;;;;;;11.56;100.00;99774.19;5110819;28;20043;-32
2022/04/06 10:28:55;;;;;;;33.22;5.13;;;;;;;11.57;100.00;99773.84;5107253;28;20163;-31
2022/04/06 10:31:28;;;;;;;26.33;4.82;;;;;;;11.63;100.00;99764.13;5110935;28;20051;-27
2022/04/06 10:34:19;;;;;;;24.08;4.55;;;;;;;11.71;100.00;99774.47;5110398;28;20052;-32
2022/04/06 10:37:05;;;;;;;31.50;5.22;;;;;;;11.80;100.00;99762.44;5109374;28;20119;-26
2022/04/06 10:39:33;;;;;;;26.33;4.75;;;;;;;11.73;100.00;99769.38;5110967;28;20067;-30
2022/04/06 10:42:16;;;;;;;25.63;4.63;;;;;;;11.83;100.00;99771.00;5109837;28;20036;-24
2022/04/06 10:44:44;;;;;;;25.75;4.57;;;;;;;11.82;100.00;99760.97;5110712;28;20044;-30
2022/04/06 10:47:14;;;;;;;26.38;4.65;;;;;;;11.66;100.00;99759.84;5110551;28;20492;-30
2022/04/06 10:49:41;;;;;;;22.75;3.38;;;;;;;11.52;100.00;99750.84;5109001;28;20435;-27
2022/04/06 10:52:22;;;;;;;21.77;3.95;;;;;;;11.57;100.00;99751.50;5110728;28;20131;-30
2022/04/06 10:54:51;;;;;;;24.08;4.65;;;;;;;11.56;100.00;99752.66;5108562;28;20062;-29
2022/04/06 10:57:20;;;;;;;28.27;5.57;;;;;;;11.57;100.00;99751.50;5110011;28;20047;-30
2022/04/06 11:00:14;;;;;;;31.42;5.05;;;;;;;11.55;100.00;99742.63;5110611;28;20484;-32
2022/04/06 11:02:50;;;;;;;26.65;5.15;;;;;;;11.49;100.00;99735.56;5109087;28;20496;-26
2022/04/06 11:05:49;;;;;;;29.73;5.28;;;;;;;11.48;100.00;99744.28;5110859;28;20040;-28
2022/04/06 11:11:43;;;;;;;32.00;5.05;;;;;;;11.20;100.00;99733.47;5070425;28;20753;-26
2022/04/06 11:14:12;;;;;;;33.42;5.15;;;;;;;11.13;100.00;99741.56;5110392;28;20407;-26
2022/04/06 11:16:41;;;;;;;32.83;5.50;;;;;;;11.11;100.00;99735.47;5109985;28;20489;-28
2022/04/06 11:19:11;;;;;;;26.90;5.53;;;;;;;11.11;100.00;99737.47;5110714;28;20066;-32
2022/04/06 11:21:49;;;;;;;33.97;5.97;;;;;;;11.01;100.00;99725.47;5110418;28;20527;-29
2022/04/06 11:24:24;;;;;;;31.48;5.72;;;;;;;10.88;100.00;99715.31;5109578;28;20039;-28
2022/04/06 11:26:52;;;;;;;33.60;5.20;;;;;;;10.81;100.00;99731.72;5110393;28;20046;-30
2022/04/06 11:29:25;;;;;;;33.63;5.68;;;;;;;10.81;100.00;99730.88;5110571;28;20044;-29
2022/04/06 11:32:01;;;;;;;34.00;4.97;;;;;;;10.80;100.00;99718.91;5109678;28;20451;-36
2022/04/06 11:34:32;;;;;;;31.92;5.00;;;;;;;10.78;100.00;99734.38;5110462;28;20126;-28
2022/04/06 11:37:00;;;;;;;32.70;4.93;;;;;;;10.75;100.00;99721.88;5110382;28;20139;-28
2022/04/06 11:39:29;;;;;;;28.05;4.53;;;;;;;10.75;100.00;99712.69;5109141;28;20070;-27